sensor_id;sensor_type;location;lat;lon;timestamp;P1;durP1;ratioP1;P2;durP2;ratioP2
809;SDS011;387;48.772;9.186;2023-05-08T00:00:56;24.10;;;13.83;;
809;SDS011;387;48.772;9.186;2023-05-08T00:03:23;28.63;;;14.30;;
809;SDS011;387;48.772;9.186;2023-05-08T00:05:48;28.23;;;14.80;;
809;SDS011;387;48.772;9.186;2023-05-08T00:08:14;20.77;;;13.03;;
809;SDS011;387;48.772;9.186;2023-05-08T00:10:40;30.00;;;15.43;;
809;SDS011;387;48.772;9.186;2023-05-08T00:13:05;24.20;;;14.67;;
809;SDS011;387;48.772;9.186;2023-05-08T00:15:31;27.33;;;14.93;;
809;SDS011;387;48.772;9.186;2023-05-08T00:17:56;27.70;;;15.27;;
809;SDS011;387;48.772;9.186;2023-05-08T00:20:22;31.27;;;16.70;;
809;SDS011;387;48.772;9.186;2023-05-08T00:22:48;24.77;;;14.63;;
809;SDS011;387;48.772;9.186;2023-05-08T00:25:13;26.33;;;14.30;;
809;SDS011;387;48.772;9.186;2023-05-08T00:27:39;27.40;;;15.57;;
809;SDS011;387;48.772;9.186;2023-05-08T00:30:06;30.00;;;15.80;;
809;SDS011;387;48.772;9.186;2023-05-08T00:32:32;30.20;;;16.30;;
809;SDS011;387;48.772;9.186;2023-05-08T00:34:58;30.63;;;16.60;;
809;SDS011;387;48.772;9.186;2023-05-08T00:37:23;25.90;;;15.00;;
809;SDS011;387;48.772;9.186;2023-05-08T00:39:49;30.20;;;15.87;;
809;SDS011;387;48.772;9.186;2023-05-08T00:42:15;27.20;;;14.30;;
809;SDS011;387;48.772;9.186;2023-05-08T00:44:41;29.73;;;15.43;;
809;SDS011;387;48.772;9.186;2023-05-08T00:47:06;25.00;;;13.57;;
809;SDS011;387;48.772;9.186;2023-05-08T00:49:32;27.33;;;14.97;;
809;SDS011;387;48.772;9.186;2023-05-08T00:51:59;32.53;;;16.53;;
809;SDS011;387;48.772;9.186;2023-05-08T00:54:27;26.83;;;14.77;;
809;SDS011;387;48.772;9.186;2023-05-08T00:56:53;26.87;;;15.60;;
809;SDS011;387;48.772;9.186;2023-05-08T00:59:19;22.90;;;13.80;;
809;SDS011;387;48.772;9.186;2023-05-08T01:01:46;25.07;;;14.90;;
809;SDS011;387;48.772;9.186;2023-05-08T01:04:14;25.03;;;12.70;;
809;SDS011;387;48.772;9.186;2023-05-08T01:06:41;21.93;;;12.57;;
809;SDS011;387;48.772;9.186;2023-05-08T01:09:07;18.03;;;11.83;;
809;SDS011;387;48.772;9.186;2023-05-08T01:11:35;22.20;;;11.77;;
809;SDS011;387;48.772;9.186;2023-05-08T01:14:18;20.27;;;11.70;;
809;SDS011;387;48.772;9.186;2023-05-08T01:16:55;20.47;;;11.20;;
809;SDS011;387;48.772;9.186;2023-05-08T01:25:11;19.87;;;11.57;;
809;SDS011;387;48.772;9.186;2023-05-08T01:31:04;18.23;;;11.00;;
809;SDS011;387;48.772;9.186;2023-05-08T01:36:38;19.63;;;10.80;;
809;SDS011;387;48.772;9.186;2023-05-08T01:39:21;17.20;;;10.30;;
809;SDS011;387;48.772;9.186;2023-05-08T01:41:58;18.50;;;11.33;;
809;SDS011;387;48.772;9.186;2023-05-08T01:44:32;28.07;;;14.90;;
809;SDS011;387;48.772;9.186;2023-05-08T01:47:06;25.80;;;14.40;;
809;SDS011;387;48.772;9.186;2023-05-08T01:49:48;30.17;;;15.83;;
809;SDS011;387;48.772;9.186;2023-05-08T01:52:21;28.50;;;16.30;;
809;SDS011;387;48.772;9.186;2023-05-08T01:55:00;38.40;;;20.67;;
809;SDS011;387;48.772;9.186;2023-05-08T01:57:30;35.30;;;17.83;;
809;SDS011;387;48.772;9.186;2023-05-08T01:59:58;36.20;;;16.90;;
809;SDS011;387;48.772;9.186;2023-05-08T02:02:27;30.40;;;16.03;;
809;SDS011;387;48.772;9.186;2023-05-08T02:04:55;33.77;;;17.60;;
809;SDS011;387;48.772;9.186;2023-05-08T02:07:22;31.80;;;17.53;;
809;SDS011;387;48.772;9.186;2023-05-08T02:09:48;34.30;;;17.73;;
809;SDS011;387;48.772;9.186;2023-05-08T02:12:16;33.03;;;16.80;;
809;SDS011;387;48.772;9.186;2023-05-08T02:14:42;29.50;;;16.17;;
809;SDS011;387;48.772;9.186;2023-05-08T02:17:10;32.40;;;16.67;;
809;SDS011;387;48.772;9.186;2023-05-08T02:19:39;29.97;;;17.67;;
809;SDS011;387;48.772;9.186;2023-05-08T02:22:06;26.30;;;15.70;;
809;SDS011;387;48.772;9.186;2023-05-08T02:24:34;27.93;;;15.70;;
809;SDS011;387;48.772;9.186;2023-05-08T02:27:00;31.93;;;15.70;;
809;SDS011;387;48.772;9.186;2023-05-08T02:29:27;26.53;;;15.03;;
809;SDS011;387;48.772;9.186;2023-05-08T02:31:54;25.10;;;14.10;;
809;SDS011;387;48.772;9.186;2023-05-08T02:34:22;22.93;;;14.03;;
809;SDS011;387;48.772;9.186;2023-05-08T02:36:48;18.57;;;11.20;;
809;SDS011;387;48.772;9.186;2023-05-08T02:39:16;19.83;;;11.00;;
809;SDS011;387;48.772;9.186;2023-05-08T02:41:43;21.53;;;11.63;;
809;SDS011;387;48.772;9.186;2023-05-08T02:44:09;16.27;;;11.37;;
809;SDS011;387;48.772;9.186;2023-05-08T02:52:12;18.20;;;10.20;;
809;SDS011;387;48.772;9.186;2023-05-08T03:00:12;17.07;;;10.03;;
809;SDS011;387;48.772;9.186;2023-05-08T03:02:41;15.10;;;9.30;;
809;SDS011;387;48.772;9.186;2023-05-08T03:05:18;23.23;;;10.27;;
809;SDS011;387;48.772;9.186;2023-05-08T03:07:50;15.50;;;10.30;;
809;SDS011;387;48.772;9.186;2023-05-08T03:10:20;22.10;;;13.63;;
809;SDS011;387;48.772;9.186;2023-05-08T03:12:49;18.00;;;11.20;;
809;SDS011;387;48.772;9.186;2023-05-08T03:15:19;22.00;;;13.17;;
809;SDS011;387;48.772;9.186;2023-05-08T03:17:51;21.13;;;11.50;;
809;SDS011;387;48.772;9.186;2023-05-08T03:20:20;18.00;;;10.67;;
809;SDS011;387;48.772;9.186;2023-05-08T03:22:49;18.20;;;10.80;;
809;SDS011;387;48.772;9.186;2023-05-08T03:25:16;18.67;;;10.67;;
809;SDS011;387;48.772;9.186;2023-05-08T03:27:44;21.03;;;12.70;;
809;SDS011;387;48.772;9.186;2023-05-08T03:30:10;23.50;;;13.60;;
809;SDS011;387;48.772;9.186;2023-05-08T03:32:36;21.83;;;12.00;;
809;SDS011;387;48.772;9.186;2023-05-08T03:35:04;25.43;;;14.03;;
809;SDS011;387;48.772;9.186;2023-05-08T03:37:31;22.30;;;13.00;;
809;SDS011;387;48.772;9.186;2023-05-08T03:39:57;23.90;;;13.30;;
809;SDS011;387;48.772;9.186;2023-05-08T03:42:23;33.87;;;16.90;;
809;SDS011;387;48.772;9.186;2023-05-08T03:44:50;30.33;;;16.70;;
809;SDS011;387;48.772;9.186;2023-05-08T03:47:17;29.33;;;16.40;;
809;SDS011;387;48.772;9.186;2023-05-08T03:49:44;25.30;;;15.70;;
809;SDS011;387;48.772;9.186;2023-05-08T03:52:11;24.80;;;13.93;;
809;SDS011;387;48.772;9.186;2023-05-08T03:54:37;27.77;;;15.20;;
809;SDS011;387;48.772;9.186;2023-05-08T03:57:03;28.40;;;15.43;;
809;SDS011;387;48.772;9.186;2023-05-08T03:59:33;30.13;;;15.80;;
809;SDS011;387;48.772;9.186;2023-05-08T04:04:54;28.37;;;16.30;;
809;SDS011;387;48.772;9.186;2023-05-08T04:07:31;27.57;;;14.73;;
809;SDS011;387;48.772;9.186;2023-05-08T04:15:21;28.00;;;14.23;;
809;SDS011;387;48.772;9.186;2023-05-08T04:17:54;23.20;;;13.33;;
809;SDS011;387;48.772;9.186;2023-05-08T04:20:28;25.77;;;15.47;;
809;SDS011;387;48.772;9.186;2023-05-08T04:22:56;26.80;;;15.30;;
809;SDS011;387;48.772;9.186;2023-05-08T04:25:22;23.60;;;13.20;;
809;SDS011;387;48.772;9.186;2023-05-08T04:27:50;25.73;;;13.90;;
809;SDS011;387;48.772;9.186;2023-05-08T04:30:17;21.23;;;12.63;;
809;SDS011;387;48.772;9.186;2023-05-08T04:32:43;24.37;;;13.57;;
809;SDS011;387;48.772;9.186;2023-05-08T04:35:09;23.10;;;13.60;;
809;SDS011;387;48.772;9.186;2023-05-08T04:37:37;23.03;;;13.00;;
809;SDS011;387;48.772;9.186;2023-05-08T04:40:03;27.97;;;15.33;;
809;SDS011;387;48.772;9.186;2023-05-08T04:42:29;22.37;;;12.43;;
809;SDS011;387;48.772;9.186;2023-05-08T04:44:55;29.70;;;13.97;;
809;SDS011;387;48.772;9.186;2023-05-08T04:47:21;20.50;;;12.40;;
809;SDS011;387;48.772;9.186;2023-05-08T04:49:47;22.13;;;13.40;;
809;SDS011;387;48.772;9.186;2023-05-08T04:52:13;22.73;;;14.53;;
809;SDS011;387;48.772;9.186;2023-05-08T04:54:39;23.13;;;13.30;;
809;SDS011;387;48.772;9.186;2023-05-08T04:57:05;21.37;;;13.10;;
809;SDS011;387;48.772;9.186;2023-05-08T04:59:32;20.57;;;12.43;;
809;SDS011;387;48.772;9.186;2023-05-08T05:01:58;22.90;;;13.10;;
809;SDS011;387;48.772;9.186;2023-05-08T05:04:26;22.10;;;12.67;;
809;SDS011;387;48.772;9.186;2023-05-08T05:06:52;22.60;;;13.97;;
809;SDS011;387;48.772;9.186;2023-05-08T05:09:17;24.27;;;13.17;;
809;SDS011;387;48.772;9.186;2023-05-08T05:11:43;20.80;;;12.87;;
809;SDS011;387;48.772;9.186;2023-05-08T05:14:09;22.37;;;13.43;;
809;SDS011;387;48.772;9.186;2023-05-08T05:16:34;24.20;;;14.40;;
809;SDS011;387;48.772;9.186;2023-05-08T05:19:00;20.73;;;12.50;;
809;SDS011;387;48.772;9.186;2023-05-08T05:21:26;28.23;;;14.17;;
809;SDS011;387;48.772;9.186;2023-05-08T05:23:52;25.73;;;15.03;;
809;SDS011;387;48.772;9.186;2023-05-08T05:26:18;23.13;;;14.10;;
809;SDS011;387;48.772;9.186;2023-05-08T05:28:44;27.63;;;15.20;;
809;SDS011;387;48.772;9.186;2023-05-08T05:31:09;25.63;;;14.73;;
809;SDS011;387;48.772;9.186;2023-05-08T05:33:35;21.57;;;13.27;;
809;SDS011;387;48.772;9.186;2023-05-08T05:36:01;24.40;;;14.30;;
809;SDS011;387;48.772;9.186;2023-05-08T05:38:26;25.07;;;13.30;;
809;SDS011;387;48.772;9.186;2023-05-08T05:40:52;24.30;;;13.90;;
809;SDS011;387;48.772;9.186;2023-05-08T05:43:17;25.00;;;14.90;;
809;SDS011;387;48.772;9.186;2023-05-08T05:45:44;24.20;;;14.57;;
809;SDS011;387;48.772;9.186;2023-05-08T05:48:10;20.93;;;12.80;;
809;SDS011;387;48.772;9.186;2023-05-08T05:50:36;22.50;;;13.27;;
809;SDS011;387;48.772;9.186;2023-05-08T05:53:02;23.47;;;13.97;;
809;SDS011;387;48.772;9.186;2023-05-08T05:55:27;23.83;;;13.40;;
809;SDS011;387;48.772;9.186;2023-05-08T05:57:53;25.27;;;13.27;;
809;SDS011;387;48.772;9.186;2023-05-08T06:00:19;22.90;;;13.27;;
809;SDS011;387;48.772;9.186;2023-05-08T06:02:45;27.50;;;14.63;;
809;SDS011;387;48.772;9.186;2023-05-08T06:05:11;23.43;;;12.90;;
809;SDS011;387;48.772;9.186;2023-05-08T06:07:37;24.43;;;12.50;;
809;SDS011;387;48.772;9.186;2023-05-08T06:10:03;23.63;;;12.47;;
809;SDS011;387;48.772;9.186;2023-05-08T06:12:30;20.53;;;12.93;;
809;SDS011;387;48.772;9.186;2023-05-08T06:14:55;21.37;;;13.10;;
809;SDS011;387;48.772;9.186;2023-05-08T06:17:21;26.43;;;14.00;;
809;SDS011;387;48.772;9.186;2023-05-08T06:19:47;26.63;;;13.63;;
809;SDS011;387;48.772;9.186;2023-05-08T06:22:18;18.87;;;11.47;;
809;SDS011;387;48.772;9.186;2023-05-08T06:24:47;22.07;;;13.27;;
809;SDS011;387;48.772;9.186;2023-05-08T06:27:13;19.63;;;12.47;;
809;SDS011;387;48.772;9.186;2023-05-08T06:29:38;20.67;;;12.43;;
809;SDS011;387;48.772;9.186;2023-05-08T06:32:04;23.77;;;12.53;;
809;SDS011;387;48.772;9.186;2023-05-08T06:34:30;26.73;;;12.37;;
809;SDS011;387;48.772;9.186;2023-05-08T06:36:56;20.30;;;13.60;;
809;SDS011;387;48.772;9.186;2023-05-08T06:39:21;17.80;;;11.13;;
809;SDS011;387;48.772;9.186;2023-05-08T06:41:47;18.30;;;12.67;;
809;SDS011;387;48.772;9.186;2023-05-08T06:44:13;15.93;;;11.17;;
809;SDS011;387;48.772;9.186;2023-05-08T06:46:40;22.60;;;14.77;;
809;SDS011;387;48.772;9.186;2023-05-08T06:49:05;22.77;;;13.47;;
809;SDS011;387;48.772;9.186;2023-05-08T06:51:31;30.00;;;16.90;;
809;SDS011;387;48.772;9.186;2023-05-08T06:53:59;22.90;;;15.70;;
809;SDS011;387;48.772;9.186;2023-05-08T06:56:25;23.80;;;13.87;;
809;SDS011;387;48.772;9.186;2023-05-08T06:58:51;19.37;;;12.70;;
809;SDS011;387;48.772;9.186;2023-05-08T07:01:16;29.23;;;13.37;;
809;SDS011;387;48.772;9.186;2023-05-08T07:03:42;28.20;;;13.73;;
809;SDS011;387;48.772;9.186;2023-05-08T07:06:08;24.07;;;14.17;;
809;SDS011;387;48.772;9.186;2023-05-08T07:08:34;21.60;;;13.17;;
809;SDS011;387;48.772;9.186;2023-05-08T07:11:00;20.83;;;13.80;;
809;SDS011;387;48.772;9.186;2023-05-08T07:13:26;19.23;;;12.40;;
809;SDS011;387;48.772;9.186;2023-05-08T07:15:52;22.50;;;12.60;;
809;SDS011;387;48.772;9.186;2023-05-08T07:18:18;39.30;;;15.37;;
809;SDS011;387;48.772;9.186;2023-05-08T07:20:44;31.37;;;16.50;;
809;SDS011;387;48.772;9.186;2023-05-08T07:23:10;21.97;;;14.10;;
809;SDS011;387;48.772;9.186;2023-05-08T07:25:35;25.73;;;13.40;;
809;SDS011;387;48.772;9.186;2023-05-08T07:28:01;25.23;;;13.10;;
809;SDS011;387;48.772;9.186;2023-05-08T07:30:27;22.00;;;13.77;;
809;SDS011;387;48.772;9.186;2023-05-08T07:32:52;20.43;;;12.80;;
809;SDS011;387;48.772;9.186;2023-05-08T07:35:18;22.87;;;14.53;;
809;SDS011;387;48.772;9.186;2023-05-08T07:37:44;21.13;;;13.40;;
809;SDS011;387;48.772;9.186;2023-05-08T07:40:09;24.77;;;13.07;;
809;SDS011;387;48.772;9.186;2023-05-08T07:42:39;23.13;;;12.90;;
809;SDS011;387;48.772;9.186;2023-05-08T07:45:08;23.73;;;14.13;;
809;SDS011;387;48.772;9.186;2023-05-08T07:47:35;25.77;;;16.00;;
809;SDS011;387;48.772;9.186;2023-05-08T07:50:01;20.93;;;12.90;;
809;SDS011;387;48.772;9.186;2023-05-08T07:52:27;18.83;;;12.10;;
809;SDS011;387;48.772;9.186;2023-05-08T07:54:53;21.70;;;14.23;;
809;SDS011;387;48.772;9.186;2023-05-08T07:57:18;24.00;;;14.00;;
809;SDS011;387;48.772;9.186;2023-05-08T07:59:44;18.80;;;12.03;;
809;SDS011;387;48.772;9.186;2023-05-08T08:02:09;23.00;;;11.50;;
809;SDS011;387;48.772;9.186;2023-05-08T08:04:35;19.53;;;10.83;;
809;SDS011;387;48.772;9.186;2023-05-08T08:07:01;18.00;;;11.53;;
809;SDS011;387;48.772;9.186;2023-05-08T08:09:26;14.53;;;8.67;;
809;SDS011;387;48.772;9.186;2023-05-08T08:11:52;15.60;;;8.70;;
809;SDS011;387;48.772;9.186;2023-05-08T08:14:17;13.20;;;8.43;;
809;SDS011;387;48.772;9.186;2023-05-08T08:16:43;11.13;;;6.93;;
809;SDS011;387;48.772;9.186;2023-05-08T08:19:09;9.70;;;6.23;;
809;SDS011;387;48.772;9.186;2023-05-08T08:21:34;17.40;;;7.53;;
809;SDS011;387;48.772;9.186;2023-05-08T08:24:01;11.37;;;7.07;;
809;SDS011;387;48.772;9.186;2023-05-08T08:26:26;12.90;;;7.10;;
809;SDS011;387;48.772;9.186;2023-05-08T08:28:52;10.73;;;6.80;;
809;SDS011;387;48.772;9.186;2023-05-08T08:31:17;10.53;;;7.10;;
809;SDS011;387;48.772;9.186;2023-05-08T08:33:44;11.50;;;7.27;;
809;SDS011;387;48.772;9.186;2023-05-08T08:36:14;14.60;;;7.70;;
809;SDS011;387;48.772;9.186;2023-05-08T08:38:40;14.93;;;8.90;;
809;SDS011;387;48.772;9.186;2023-05-08T08:41:06;10.93;;;7.87;;
809;SDS011;387;48.772;9.186;2023-05-08T08:43:32;12.50;;;7.80;;
809;SDS011;387;48.772;9.186;2023-05-08T08:45:59;11.93;;;8.20;;
809;SDS011;387;48.772;9.186;2023-05-08T08:48:34;12.97;;;8.13;;
809;SDS011;387;48.772;9.186;2023-05-08T08:51:05;17.17;;;7.90;;
809;SDS011;387;48.772;9.186;2023-05-08T08:53:35;16.87;;;9.53;;
809;SDS011;387;48.772;9.186;2023-05-08T08:56:03;14.47;;;9.07;;
809;SDS011;387;48.772;9.186;2023-05-08T08:58:34;13.43;;;8.30;;
809;SDS011;387;48.772;9.186;2023-05-08T09:01:04;12.97;;;9.03;;
809;SDS011;387;48.772;9.186;2023-05-08T09:03:31;16.37;;;9.00;;
809;SDS011;387;48.772;9.186;2023-05-08T09:06:00;15.00;;;8.40;;
809;SDS011;387;48.772;9.186;2023-05-08T09:08:27;13.73;;;9.30;;
809;SDS011;387;48.772;9.186;2023-05-08T09:10:53;14.30;;;8.97;;
809;SDS011;387;48.772;9.186;2023-05-08T09:13:20;17.50;;;9.30;;
809;SDS011;387;48.772;9.186;2023-05-08T09:15:46;13.17;;;8.37;;
809;SDS011;387;48.772;9.186;2023-05-08T09:18:14;16.00;;;9.90;;
809;SDS011;387;48.772;9.186;2023-05-08T09:20:40;29.83;;;10.23;;
809;SDS011;387;48.772;9.186;2023-05-08T09:23:06;18.07;;;11.37;;
809;SDS011;387;48.772;9.186;2023-05-08T09:26:05;14.97;;;9.23;;
809;SDS011;387;48.772;9.186;2023-05-08T09:28:24;18.90;;;10.57;;
809;SDS011;387;48.772;9.186;2023-05-08T09:30:51;16.50;;;9.60;;
809;SDS011;387;48.772;9.186;2023-05-08T09:33:18;16.23;;;10.33;;
809;SDS011;387;48.772;9.186;2023-05-08T09:35:44;18.00;;;11.50;;
809;SDS011;387;48.772;9.186;2023-05-08T09:41:08;21.37;;;10.90;;
809;SDS011;387;48.772;9.186;2023-05-08T09:43:36;20.10;;;11.43;;
809;SDS011;387;48.772;9.186;2023-05-08T09:48:57;19.70;;;10.33;;
809;SDS011;387;48.772;9.186;2023-05-08T09:51:24;15.27;;;9.07;;
809;SDS011;387;48.772;9.186;2023-05-08T09:53:54;19.27;;;9.97;;
809;SDS011;387;48.772;9.186;2023-05-08T09:56:33;19.20;;;11.77;;
809;SDS011;387;48.772;9.186;2023-05-08T10:01:50;17.63;;;10.63;;
809;SDS011;387;48.772;9.186;2023-05-08T10:04:15;20.40;;;10.80;;
809;SDS011;387;48.772;9.186;2023-05-08T10:06:41;16.97;;;10.80;;
809;SDS011;387;48.772;9.186;2023-05-08T10:09:08;12.80;;;8.97;;
809;SDS011;387;48.772;9.186;2023-05-08T10:11:34;15.60;;;8.47;;
809;SDS011;387;48.772;9.186;2023-05-08T10:14:00;11.70;;;6.80;;
809;SDS011;387;48.772;9.186;2023-05-08T10:16:27;14.17;;;8.70;;
809;SDS011;387;48.772;9.186;2023-05-08T10:18:56;11.50;;;6.40;;
809;SDS011;387;48.772;9.186;2023-05-08T10:21:27;14.10;;;6.83;;
809;SDS011;387;48.772;9.186;2023-05-08T10:23:55;13.20;;;7.20;;
809;SDS011;387;48.772;9.186;2023-05-08T10:26:29;14.07;;;8.37;;
809;SDS011;387;48.772;9.186;2023-05-08T10:28:56;12.90;;;7.90;;
809;SDS011;387;48.772;9.186;2023-05-08T10:31:24;14.07;;;8.70;;
809;SDS011;387;48.772;9.186;2023-05-08T10:33:53;13.57;;;9.07;;
809;SDS011;387;48.772;9.186;2023-05-08T10:36:23;19.10;;;11.27;;
809;SDS011;387;48.772;9.186;2023-05-08T10:38:52;15.13;;;9.80;;
809;SDS011;387;48.772;9.186;2023-05-08T10:41:18;16.03;;;9.93;;
809;SDS011;387;48.772;9.186;2023-05-08T10:43:44;12.30;;;7.90;;
809;SDS011;387;48.772;9.186;2023-05-08T10:57:17;13.77;;;7.10;;
809;SDS011;387;48.772;9.186;2023-05-08T10:59:45;10.27;;;6.00;;
809;SDS011;387;48.772;9.186;2023-05-08T11:02:11;11.20;;;6.70;;
809;SDS011;387;48.772;9.186;2023-05-08T11:04:37;10.73;;;6.37;;
809;SDS011;387;48.772;9.186;2023-05-08T11:07:03;8.07;;;5.53;;
809;SDS011;387;48.772;9.186;2023-05-08T11:09:30;9.80;;;5.30;;
809;SDS011;387;48.772;9.186;2023-05-08T11:12:25;7.83;;;5.47;;
809;SDS011;387;48.772;9.186;2023-05-08T11:17:29;7.70;;;4.73;;
809;SDS011;387;48.772;9.186;2023-05-08T11:19:55;6.13;;;4.87;;
809;SDS011;387;48.772;9.186;2023-05-08T11:22:32;9.87;;;5.00;;
809;SDS011;387;48.772;9.186;2023-05-08T11:25:03;7.23;;;4.93;;
809;SDS011;387;48.772;9.186;2023-05-08T11:30:20;6.83;;;4.70;;
809;SDS011;387;48.772;9.186;2023-05-08T11:32:56;7.30;;;5.37;;
809;SDS011;387;48.772;9.186;2023-05-08T11:46:01;11.40;;;6.70;;
809;SDS011;387;48.772;9.186;2023-05-08T11:48:28;11.67;;;7.33;;
809;SDS011;387;48.772;9.186;2023-05-08T11:50:54;13.23;;;7.83;;
809;SDS011;387;48.772;9.186;2023-05-08T11:53:20;9.87;;;7.70;;
809;SDS011;387;48.772;9.186;2023-05-08T11:55:46;14.87;;;8.30;;
809;SDS011;387;48.772;9.186;2023-05-08T11:58:17;15.10;;;9.60;;
809;SDS011;387;48.772;9.186;2023-05-08T12:00:43;13.03;;;8.80;;
809;SDS011;387;48.772;9.186;2023-05-08T12:03:16;12.20;;;8.20;;
809;SDS011;387;48.772;9.186;2023-05-08T12:05:43;12.00;;;8.93;;
809;SDS011;387;48.772;9.186;2023-05-08T12:08:10;17.37;;;11.27;;
809;SDS011;387;48.772;9.186;2023-05-08T12:13:16;17.00;;;10.60;;
809;SDS011;387;48.772;9.186;2023-05-08T12:15:45;15.27;;;9.63;;
809;SDS011;387;48.772;9.186;2023-05-08T12:18:11;12.83;;;8.50;;
809;SDS011;387;48.772;9.186;2023-05-08T12:20:37;12.17;;;8.80;;
809;SDS011;387;48.772;9.186;2023-05-08T12:23:03;17.20;;;11.30;;
809;SDS011;387;48.772;9.186;2023-05-08T12:25:29;18.00;;;10.40;;
809;SDS011;387;48.772;9.186;2023-05-08T12:27:55;15.37;;;10.67;;
809;SDS011;387;48.772;9.186;2023-05-08T12:30:21;14.77;;;10.30;;
809;SDS011;387;48.772;9.186;2023-05-08T12:32:47;13.90;;;9.60;;
809;SDS011;387;48.772;9.186;2023-05-08T12:35:13;16.07;;;10.57;;
809;SDS011;387;48.772;9.186;2023-05-08T12:37:40;16.20;;;9.00;;
809;SDS011;387;48.772;9.186;2023-05-08T12:40:06;17.00;;;9.90;;
809;SDS011;387;48.772;9.186;2023-05-08T12:42:45;14.17;;;9.20;;
809;SDS011;387;48.772;9.186;2023-05-08T12:45:19;12.63;;;9.40;;
809;SDS011;387;48.772;9.186;2023-05-08T12:47:50;13.23;;;9.23;;
809;SDS011;387;48.772;9.186;2023-05-08T12:50:17;15.80;;;8.40;;
809;SDS011;387;48.772;9.186;2023-05-08T12:52:47;15.80;;;9.70;;
809;SDS011;387;48.772;9.186;2023-05-08T12:57:46;11.97;;;8.70;;
809;SDS011;387;48.772;9.186;2023-05-08T13:00:14;15.40;;;9.10;;
809;SDS011;387;48.772;9.186;2023-05-08T13:02:49;18.00;;;8.90;;
809;SDS011;387;48.772;9.186;2023-05-08T13:05:17;18.13;;;9.40;;
809;SDS011;387;48.772;9.186;2023-05-08T13:07:44;14.50;;;9.30;;
809;SDS011;387;48.772;9.186;2023-05-08T13:10:10;12.77;;;8.70;;
809;SDS011;387;48.772;9.186;2023-05-08T13:12:35;10.80;;;8.10;;
809;SDS011;387;48.772;9.186;2023-05-08T13:15:01;12.60;;;8.30;;
809;SDS011;387;48.772;9.186;2023-05-08T13:17:28;15.80;;;9.57;;
809;SDS011;387;48.772;9.186;2023-05-08T13:19:54;11.43;;;7.73;;
809;SDS011;387;48.772;9.186;2023-05-08T13:22:20;13.00;;;9.20;;
809;SDS011;387;48.772;9.186;2023-05-08T13:24:50;14.47;;;9.50;;
809;SDS011;387;48.772;9.186;2023-05-08T13:27:16;11.47;;;8.63;;
809;SDS011;387;48.772;9.186;2023-05-08T13:29:41;11.90;;;8.57;;
809;SDS011;387;48.772;9.186;2023-05-08T13:32:07;12.80;;;8.20;;
809;SDS011;387;48.772;9.186;2023-05-08T13:34:33;14.63;;;10.10;;
809;SDS011;387;48.772;9.186;2023-05-08T13:36:58;16.63;;;10.00;;
809;SDS011;387;48.772;9.186;2023-05-08T13:39:24;15.43;;;10.57;;
809;SDS011;387;48.772;9.186;2023-05-08T13:41:50;17.80;;;10.83;;
809;SDS011;387;48.772;9.186;2023-05-08T13:44:15;16.43;;;10.70;;
809;SDS011;387;48.772;9.186;2023-05-08T13:46:41;17.97;;;11.10;;
809;SDS011;387;48.772;9.186;2023-05-08T13:49:06;19.70;;;10.63;;
809;SDS011;387;48.772;9.186;2023-05-08T13:51:32;16.73;;;11.50;;
809;SDS011;387;48.772;9.186;2023-05-08T13:53:57;17.73;;;10.93;;
809;SDS011;387;48.772;9.186;2023-05-08T13:56:23;18.33;;;11.30;;
809;SDS011;387;48.772;9.186;2023-05-08T13:58:49;27.70;;;11.87;;
809;SDS011;387;48.772;9.186;2023-05-08T14:01:15;13.20;;;9.20;;
809;SDS011;387;48.772;9.186;2023-05-08T14:03:41;14.47;;;9.73;;
809;SDS011;387;48.772;9.186;2023-05-08T14:06:06;17.93;;;11.23;;
809;SDS011;387;48.772;9.186;2023-05-08T14:08:32;17.73;;;10.97;;
809;SDS011;387;48.772;9.186;2023-05-08T14:10:58;19.33;;;12.13;;
809;SDS011;387;48.772;9.186;2023-05-08T14:13:23;19.13;;;12.20;;
809;SDS011;387;48.772;9.186;2023-05-08T14:15:49;16.53;;;11.50;;
809;SDS011;387;48.772;9.186;2023-05-08T14:18:14;20.13;;;13.60;;
809;SDS011;387;48.772;9.186;2023-05-08T14:20:40;18.77;;;12.60;;
809;SDS011;387;48.772;9.186;2023-05-08T14:23:06;19.67;;;13.53;;
809;SDS011;387;48.772;9.186;2023-05-08T14:25:31;18.30;;;12.10;;
809;SDS011;387;48.772;9.186;2023-05-08T14:27:57;20.07;;;13.10;;
809;SDS011;387;48.772;9.186;2023-05-08T14:30:22;22.43;;;12.63;;
809;SDS011;387;48.772;9.186;2023-05-08T14:32:48;19.70;;;11.27;;
809;SDS011;387;48.772;9.186;2023-05-08T14:35:14;19.50;;;11.60;;
809;SDS011;387;48.772;9.186;2023-05-08T14:37:39;19.80;;;12.00;;
809;SDS011;387;48.772;9.186;2023-05-08T14:40:05;21.10;;;12.10;;
809;SDS011;387;48.772;9.186;2023-05-08T14:42:31;21.70;;;13.13;;
809;SDS011;387;48.772;9.186;2023-05-08T14:44:57;18.00;;;11.77;;
809;SDS011;387;48.772;9.186;2023-05-08T14:47:23;24.70;;;13.40;;
809;SDS011;387;48.772;9.186;2023-05-08T14:49:49;21.33;;;14.40;;
809;SDS011;387;48.772;9.186;2023-05-08T14:52:15;20.93;;;12.60;;
809;SDS011;387;48.772;9.186;2023-05-08T14:54:40;24.60;;;13.87;;
809;SDS011;387;48.772;9.186;2023-05-08T14:57:06;21.80;;;14.40;;
809;SDS011;387;48.772;9.186;2023-05-08T14:59:32;24.03;;;14.83;;
809;SDS011;387;48.772;9.186;2023-05-08T15:01:57;26.80;;;15.90;;
809;SDS011;387;48.772;9.186;2023-05-08T15:04:23;30.90;;;18.50;;
809;SDS011;387;48.772;9.186;2023-05-08T15:06:48;29.20;;;17.40;;
809;SDS011;387;48.772;9.186;2023-05-08T15:09:14;31.70;;;21.10;;
809;SDS011;387;48.772;9.186;2023-05-08T15:11:43;38.23;;;17.27;;
809;SDS011;387;48.772;9.186;2023-05-08T15:14:08;33.50;;;18.27;;
809;SDS011;387;48.772;9.186;2023-05-08T15:16:34;32.03;;;18.83;;
809;SDS011;387;48.772;9.186;2023-05-08T15:19:00;45.57;;;23.27;;
809;SDS011;387;48.772;9.186;2023-05-08T15:21:25;39.37;;;22.93;;
809;SDS011;387;48.772;9.186;2023-05-08T15:23:51;44.90;;;24.27;;
809;SDS011;387;48.772;9.186;2023-05-08T15:26:18;37.63;;;21.93;;
809;SDS011;387;48.772;9.186;2023-05-08T15:28:44;33.47;;;20.70;;
809;SDS011;387;48.772;9.186;2023-05-08T15:31:10;38.40;;;21.67;;
809;SDS011;387;48.772;9.186;2023-05-08T15:33:35;33.17;;;17.80;;
809;SDS011;387;48.772;9.186;2023-05-08T15:36:01;30.40;;;18.33;;
809;SDS011;387;48.772;9.186;2023-05-08T15:38:27;26.47;;;17.83;;
809;SDS011;387;48.772;9.186;2023-05-08T15:40:52;29.80;;;17.70;;
809;SDS011;387;48.772;9.186;2023-05-08T15:43:18;29.90;;;17.20;;
809;SDS011;387;48.772;9.186;2023-05-08T15:45:44;31.20;;;16.10;;
809;SDS011;387;48.772;9.186;2023-05-08T15:48:10;31.33;;;17.20;;
809;SDS011;387;48.772;9.186;2023-05-08T15:50:35;32.00;;;17.83;;
809;SDS011;387;48.772;9.186;2023-05-08T15:53:01;25.80;;;15.07;;
809;SDS011;387;48.772;9.186;2023-05-08T15:55:27;29.90;;;17.60;;
809;SDS011;387;48.772;9.186;2023-05-08T15:57:52;27.07;;;17.40;;
809;SDS011;387;48.772;9.186;2023-05-08T16:00:18;26.17;;;17.90;;
809;SDS011;387;48.772;9.186;2023-05-08T16:02:44;27.87;;;16.70;;
809;SDS011;387;48.772;9.186;2023-05-08T16:05:11;29.77;;;18.10;;
809;SDS011;387;48.772;9.186;2023-05-08T16:07:37;32.63;;;19.23;;
809;SDS011;387;48.772;9.186;2023-05-08T16:10:02;32.30;;;17.20;;
809;SDS011;387;48.772;9.186;2023-05-08T16:12:28;25.37;;;14.80;;
809;SDS011;387;48.772;9.186;2023-05-08T16:14:54;32.43;;;18.27;;
809;SDS011;387;48.772;9.186;2023-05-08T16:17:19;26.83;;;16.57;;
809;SDS011;387;48.772;9.186;2023-05-08T16:19:45;32.40;;;15.10;;
809;SDS011;387;48.772;9.186;2023-05-08T16:22:11;36.37;;;17.90;;
809;SDS011;387;48.772;9.186;2023-05-08T16:24:36;28.03;;;16.30;;
809;SDS011;387;48.772;9.186;2023-05-08T16:27:02;30.03;;;18.37;;
809;SDS011;387;48.772;9.186;2023-05-08T16:29:27;30.97;;;17.40;;
809;SDS011;387;48.772;9.186;2023-05-08T16:31:53;29.90;;;15.90;;